Flight Track Log - Related Links

Times and Time Zones

All times are in EDT time to prevent confusion due to time zone crossing. See the SKW7367 flight status page for this flight to view local times or setup timezone preferences in your user account.

Time Position Orientation Groundspeed Altitude Reporting Facility
EDT Latitude Longitude Course Direction KTS MPH feet Rate Location/Type
Mon 04:38:01 PM 42.2214 -83.3581 312° West 149 171 1,200  Level Cleveland Center
Mon 04:38:43 PM 42.2533 -83.3511 North 190 219 2,600 2,308 Climbing Cleveland Center
Mon 04:39:32 PM 42.3025 -83.3383 11° North 251 289 4,700 2,755 Climbing Cleveland Center
Mon 04:40:21 PM 42.3561 -83.3211 13° North 251 289 7,100 2,962 Climbing Cleveland Center
Mon 04:40:51 PM 42.3989 -83.3125 North 285 328 8,600 2,903 Climbing Cleveland Center
Mon 04:41:00 PM 42.6186 -83.3815 340° North  Level Estimated
Mon 04:41:23 PM 42.4358 -83.3144 358° North 283 326 10,100  Level Cleveland Center
Mon 04:42:00 PM 42.7201 -83.3886 North  Level Estimated
Mon 04:42:25 PM 42.5181 -83.3256 354° North 295 339 12,100  Level Cleveland Center
Mon 04:43:00 PM 42.8217 -83.3958 312° West  Level Estimated
Mon 04:43:27 PM 42.6072 -83.3314 357° North 318 366 14,200  Level Cleveland Center
Mon 04:44:29 PM 42.6969 -83.3403 356° North 323 372 16,200 1,584 Climbing Cleveland Center
Mon 04:45:32 PM 42.8133 -83.3483 357° North 350 403 17,500 1,008 Climbing Cleveland Center
Mon 04:46:34 PM 42.9172 -83.3575 356° North 371 427 18,300 871 Climbing Cleveland Center
Mon 04:47:36 PM 43.0264 -83.3719 354° North 391 450 19,300 953 Climbing Cleveland Center
Mon 04:49:24 PM 43.2269 -83.3878 357° North 396 456 21,000 596 Climbing Minneapolis Center
Mon 04:50:27 PM 43.3417 -83.3989 356° North 407 468 21,000  Level Minneapolis Center
Mon 04:51:44 PM 43.5039 -83.4111 357° North 422 486 21,000  Level Cleveland Center
Mon 04:52:46 PM 43.6200 -83.4211 356° North 419 482 21,000  Level Cleveland Center
Mon 04:53:33 PM 43.6947 -83.4294 355° North 422 486 21,000  Level Minneapolis Center
Mon 04:54:35 PM 43.8328 -83.4419 356° North 418 481 21,000  Level Minneapolis Center
Mon 04:55:37 PM 43.9547 -83.4517 357° North 418 481 21,000  Level Minneapolis Center
Mon 04:56:39 PM 44.0644 -83.4622 356° North 403 464 21,000 -726 Level Minneapolis Center
Mon 04:57:41 PM 44.1814 -83.4775 355° North 396 456 19,500 -2,081 Descending Minneapolis Center
Mon 04:58:43 PM 44.2858 -83.4886 356° North 384 442 16,700 -2,903 Descending Minneapolis Center
Mon 04:59:45 PM 44.3925 -83.5031 354° North 365 420 13,500 -2,806 Descending Minneapolis Center
Mon 05:00:47 PM 44.4919 -83.5142 355° North 337 388 10,900 -1,887 Descending Minneapolis Center
Mon 05:01:49 PM 44.5764 -83.5244 355° North 312 359 9,600 -1,452 Descending Minneapolis Center
Mon 05:02:51 PM 44.6539 -83.5339 355° North 263 303 7,900 -1,597 Descending Minneapolis Center
Mon 05:03:53 PM 44.7289 -83.5431 355° North 271 312 6,300 -1,392 Descending Minneapolis Center
Mon 05:04:56 PM 44.8097 -83.5525 355° North 273 314 5,000 -720 Descending Minneapolis Center
Mon 05:05:58 PM 44.8792 -83.5597 356° North 260 299 4,800 -532 Descending Minneapolis Center
Mon 05:07:00 PM 44.9428 -83.5586 North 218 251 3,900 -1,113 Descending Minneapolis Center
Mon 05:08:02 PM 44.9964 -83.5597 359° North 202 232 2,500 -1,258 Descending Minneapolis Center
Mon 05:09:04 PM 45.0394 -83.5611 359° North 146 168 1,300 -1,161 Descending Minneapolis Center

Login

Don't have an account? Register now (free) for customized features, flight alerts, and more!